Time;durP1;ratioP1;P1;durP2;ratioP2;P2;SDS_P1;SDS_P2;PMS_P1;PMS_P2;Temp;Humidity;BMP_temperature;BMP_pressure;BME280_temperature;BME280_humidity;BME280_pressure;Samples;Min_cycle;Max_cycle;Signal;HPM_P1;HPM_P2
2023/03/24 00:04:05;;;;;;;2.78;1.00;;;15.70;72.30;;;;;;10464000;28;20032;-56
2023/03/24 00:09:06;;;;;;;3.28;1.13;;;15.70;72.50;;;;;;10448016;28;20051;-55
2023/03/24 00:14:11;;;;;;;1.80;0.93;;;15.70;72.30;;;;;;10447975;28;20396;-55
2023/03/24 00:19:13;;;;;;;3.17;1.02;;;15.70;72.40;;;;;;10446875;28;20722;-56
2023/03/24 00:24:20;;;;;;;2.20;0.75;;;15.80;76.80;;;;;;10447030;28;20089;-56
2023/03/24 00:29:20;;;;;;;2.80;1.08;;;15.90;76.10;;;;;;10447557;28;20611;-56
2023/03/24 00:34:21;;;;;;;2.42;0.70;;;15.90;75.90;;;;;;10446267;28;20013;-56
2023/03/24 00:39:22;;;;;;;3.33;1.10;;;15.90;75.70;;;;;;10445057;28;20025;-55
2023/03/24 00:44:23;;;;;;;2.17;1.15;;;15.80;75.50;;;;;;10447451;28;20100;-57
2023/03/24 00:49:47;;;;;;;2.58;1.00;;;15.80;75.50;;;;;;10428807;28;20040;-56
2023/03/24 00:54:50;;;;;;;2.85;1.10;;;15.80;75.20;;;;;;10446226;28;20021;-56
2023/03/24 00:59:53;;;;;;;2.75;1.05;;;15.80;75.20;;;;;;10444997;28;20033;-56
2023/03/24 01:05:00;;;;;;;2.40;0.90;;;15.80;75.20;;;;;;10445084;28;20033;-56
2023/03/24 01:10:01;;;;;;;2.28;0.90;;;15.70;74.60;;;;;;10445011;28;20036;-56
2023/03/24 01:15:16;;;;;;;1.75;0.80;;;15.70;74.80;;;;;;10445902;28;20036;-56
2023/03/24 01:20:19;;;;;;;1.52;0.90;;;15.70;74.70;;;;;;10445640;28;20045;-55
2023/03/24 01:25:22;;;;;;;1.95;0.60;;;15.70;74.40;;;;;;10444815;28;20023;-55
2023/03/24 01:30:26;;;;;;;1.33;0.77;;;15.70;73.80;;;;;;10444705;28;20029;-56
2023/03/24 01:35:27;;;;;;;4.95;1.40;;;15.70;73.60;;;;;;10444174;28;20476;-56
2023/03/24 01:40:32;;;;;;;3.75;0.75;;;15.70;73.40;;;;;;10445933;28;20021;-54
2023/03/24 01:45:55;;;;;;;1.58;1.35;;;15.60;73.50;;;;;;10444156;28;20047;-54
2023/03/24 01:51:22;;;;;;;2.80;1.00;;;15.70;73.80;;;;;;10451793;28;20044;-56
2023/03/24 01:56:24;;;;;;;1.05;0.60;;;15.60;73.20;;;;;;10453293;28;20025;-54
2023/03/24 02:01:29;;;;;;;1.52;0.77;;;15.60;73.20;;;;;;10452110;28;20052;-55
2023/03/24 02:06:34;;;;;;;1.13;0.60;;;15.60;73.20;;;;;;10451962;28;20060;-56
2023/03/24 02:11:36;;;;;;;1.65;0.80;;;15.60;73.00;;;;;;10452795;28;20123;-56
2023/03/24 02:17:11;;;;;;;2.03;0.70;;;15.60;73.00;;;;;;10452753;28;20065;-55
2023/03/24 02:22:58;;;;;;;1.90;1.13;;;15.60;73.00;;;;;;10447807;28;20033;-56
2023/03/24 02:28:43;;;;;;;1.50;0.95;;;15.60;73.00;;;;;;10441228;28;20053;-56
2023/03/24 02:34:39;;;;;;;2.70;1.00;;;15.60;73.00;;;;;;10436739;28;20053;-55
2023/03/24 02:40:21;;;;;;;1.40;0.90;;;15.60;73.00;;;;;;10433460;28;20041;-56
2023/03/24 02:45:53;;;;;;;1.67;0.73;;;15.60;73.00;;;;;;10451414;28;20048;-56
2023/03/24 02:51:05;;;;;;;2.53;0.93;;;15.60;73.10;;;;;;10443870;28;20036;-57
2023/03/24 02:56:28;;;;;;;1.75;0.80;;;15.60;73.00;;;;;;10437945;28;20017;-55
2023/03/24 03:01:40;;;;;;;2.55;1.10;;;15.60;73.00;;;;;;10449909;28;20032;-56
2023/03/24 03:06:48;;;;;;;1.92;1.10;;;15.50;72.90;;;;;;10451057;28;20035;-54
2023/03/24 03:11:53;;;;;;;1.67;0.98;;;15.60;73.00;;;;;;10449056;28;20049;-56
2023/03/24 03:17:03;;;;;;;2.17;0.90;;;15.60;73.30;;;;;;10449512;28;20063;-56
2023/03/24 03:22:16;;;;;;;0.95;0.60;;;15.50;73.30;;;;;;10449116;28;20714;-56
2023/03/24 03:27:28;;;;;;;1.92;1.00;;;15.50;73.30;;;;;;10448585;28;20025;-55
2023/03/24 03:32:34;;;;;;;2.53;1.02;;;15.50;73.30;;;;;;10448784;28;20153;-56
2023/03/24 03:38:14;;;;;;;1.58;0.90;;;15.50;73.30;;;;;;10448436;28;20025;-57
2023/03/24 03:43:15;;;;;;;1.38;0.63;;;15.50;73.40;;;;;;10448657;28;20116;-55
2023/03/24 03:48:16;;;;;;;1.65;0.90;;;15.50;73.30;;;;;;10447822;28;20655;-56
2023/03/24 03:53:22;;;;;;;1.65;0.73;;;15.50;73.20;;;;;;10435889;28;20052;-56
2023/03/24 03:58:22;;;;;;;2.10;0.57;;;15.50;73.30;;;;;;10446898;28;20527;-56
2023/03/24 04:03:35;;;;;;;1.25;0.70;;;15.50;73.10;;;;;;10447415;28;20111;-56
2023/03/24 04:09:02;;;;;;;3.13;1.02;;;15.50;73.10;;;;;;10448171;28;20040;-56
2023/03/24 04:14:50;;;;;;;1.67;0.70;;;15.50;73.10;;;;;;10431155;28;20041;-55
2023/03/24 04:20:21;;;;;;;1.73;0.73;;;15.50;73.10;;;;;;10446456;28;20491;-56
2023/03/24 04:26:09;;;;;;;1.25;0.70;;;15.40;73.10;;;;;;10447650;28;20020;-55
2023/03/24 04:31:22;;;;;;;1.35;0.82;;;15.40;72.90;;;;;;10435443;28;20041;-55
2023/03/24 04:36:49;;;;;;;3.05;0.95;;;15.40;72.90;;;;;;10446005;28;20021;-56
2023/03/24 04:41:51;;;;;;;1.27;0.73;;;15.40;72.90;;;;;;10446020;28;20639;-56
2023/03/24 04:46:56;;;;;;;1.77;0.80;;;15.40;73.00;;;;;;10445156;28;20029;-55
2023/03/24 04:51:57;;;;;;;2.30;0.90;;;15.40;72.90;;;;;;10444017;28;20048;-56
2023/03/24 04:57:03;;;;;;;2.67;0.73;;;15.40;72.80;;;;;;10434672;28;20111;-56
2023/03/24 05:02:04;;;;;;;2.78;1.10;;;15.40;73.40;;;;;;10437945;28;20021;-55
2023/03/24 05:07:05;;;;;;;2.13;0.80;;;15.40;73.10;;;;;;10446119;28;20053;-56
2023/03/24 05:12:05;;;;;;;1.70;0.65;;;15.50;72.80;;;;;;10445199;28;20128;-56
2023/03/24 05:17:06;;;;;;;4.55;1.20;;;15.60;72.30;;;;;;10444514;28;20100;-56
2023/03/24 05:22:07;;;;;;;2.15;1.58;;;15.80;71.80;;;;;;10444283;28;20105;-56
2023/03/24 05:27:07;;;;;;;4.32;1.20;;;16.00;71.20;;;;;;10447774;28;20108;-56
2023/03/24 05:32:08;;;;;;;2.72;1.20;;;16.10;70.70;;;;;;10439535;28;20132;-55
2023/03/24 05:37:11;;;;;;;2.80;0.65;;;16.10;70.40;;;;;;10449404;28;20024;-56
2023/03/24 05:42:13;;;;;;;7.47;0.90;;;16.20;70.20;;;;;;10423640;28;20357;-56
2023/03/24 05:47:15;;;;;;;2.40;1.75;;;16.20;70.60;;;;;;10434639;28;20023;-55
2023/03/24 05:52:15;;;;;;;4.30;1.52;;;16.50;70.80;;;;;;10442957;28;20064;-56
2023/03/24 05:57:17;;;;;;;5.07;1.95;;;16.50;70.90;;;;;;10435732;28;20370;-55
2023/03/24 06:02:18;;;;;;;3.55;1.40;;;16.50;71.40;;;;;;10452253;28;20049;-55
2023/03/24 06:07:18;;;;;;;10.27;2.53;;;16.50;71.60;;;;;;10451367;28;20029;-55
2023/03/24 06:12:20;;;;;;;10.25;3.05;;;16.50;72.30;;;;;;10451624;28;20037;-56
2023/03/24 06:17:21;;;;;;;9.90;2.67;;;16.60;72.30;;;;;;10450986;28;20021;-52
2023/03/24 06:22:21;;;;;;;10.95;2.60;;;16.60;72.70;;;;;;10451468;28;20100;-56
2023/03/24 06:27:28;;;;;;;12.10;3.17;;;16.70;72.40;;;;;;10451224;28;20055;-54
2023/03/24 06:32:29;;;;;;;7.45;2.65;;;16.60;72.60;;;;;;10452208;28;20025;-54
2023/03/24 06:37:31;;;;;;;6.45;2.47;;;16.50;72.80;;;;;;10449385;28;20021;-52
2023/03/24 06:42:31;;;;;;;10.32;2.53;;;16.40;73.00;;;;;;10451793;28;20098;-56
2023/03/24 06:47:32;;;;;;;18.40;3.72;;;16.30;72.90;;;;;;10447431;28;20625;-58
2023/03/24 06:52:34;;;;;;;25.00;3.88;;;16.30;72.80;;;;;;10444424;28;20017;-55
2023/03/24 06:57:35;;;;;;;28.73;5.20;;;16.20;72.80;;;;;;10458646;28;20672;-55
2023/03/24 07:02:37;;;;;;;41.90;6.90;;;16.30;73.10;;;;;;10444806;28;20103;-53
2023/03/24 07:07:37;;;;;;;34.38;5.63;;;16.30;73.50;;;;;;10446631;28;20372;-58
2023/03/24 07:12:39;;;;;;;38.53;6.97;;;16.20;73.70;;;;;;10446836;28;20069;-53
2023/03/24 07:17:42;;;;;;;38.03;6.20;;;16.20;73.60;;;;;;10446545;28;20409;-54
2023/03/24 07:22:43;;;;;;;36.30;5.93;;;16.20;73.70;;;;;;10447585;28;20032;-55
2023/03/24 07:27:44;;;;;;;32.38;7.18;;;16.20;73.40;;;;;;10450763;28;20069;-55
2023/03/24 07:32:45;;;;;;;28.13;6.35;;;16.10;73.50;;;;;;10432702;28;20079;-55
2023/03/24 07:37:46;;;;;;;28.30;6.07;;;16.00;73.50;;;;;;10449096;28;20102;-55
2023/03/24 07:42:46;;;;;;;39.50;7.60;;;16.00;73.50;;;;;;10448219;28;20116;-55
2023/03/24 07:47:47;;;;;;;32.80;6.40;;;16.00;73.70;;;;;;10425153;28;20137;-56
2023/03/24 07:52:49;;;;;;;27.73;6.25;;;16.10;73.90;;;;;;10448819;28;20083;-55
2023/03/24 07:57:50;;;;;;;23.55;5.18;;;16.10;73.70;;;;;;10447778;28;20096;-55
2023/03/24 08:02:52;;;;;;;26.38;5.03;;;16.10;73.90;;;;;;10437911;28;20092;-55
2023/03/24 08:07:53;;;;;;;19.45;4.88;;;16.10;73.80;;;;;;10447412;28;20040;-55
2023/03/24 08:12:55;;;;;;;16.17;4.18;;;16.10;74.00;;;;;;10427204;28;20075;-57
2023/03/24 08:17:56;;;;;;;17.52;4.10;;;16.20;73.80;;;;;;10446999;28;20053;-54
2023/03/24 08:22:56;;;;;;;17.42;5.53;;;16.20;73.70;;;;;;10446025;28;20262;-54
2023/03/24 08:27:57;;;;;;;11.60;3.30;;;16.20;73.80;;;;;;10422585;28;20043;-55
2023/03/24 08:33:01;;;;;;;18.55;4.82;;;16.20;73.70;;;;;;10447521;28;20088;-54
2023/03/24 08:38:01;;;;;;;18.45;4.88;;;16.10;73.80;;;;;;10435208;28;20053;-54
2023/03/24 08:43:07;;;;;;;19.17;4.93;;;16.10;73.70;;;;;;10433502;28;20029;-55
2023/03/24 08:48:09;;;;;;;17.80;5.70;;;16.10;73.70;;;;;;10447424;28;20024;-54
2023/03/24 08:53:11;;;;;;;17.05;4.15;;;16.00;73.90;;;;;;10440347;28;20372;-56
2023/03/24 08:58:19;;;;;;;15.25;4.00;;;16.00;73.80;;;;;;10432403;28;20021;-55
2023/03/24 09:03:21;;;;;;;13.35;3.67;;;16.00;73.70;;;;;;10445235;28;20017;-55
2023/03/24 09:08:21;;;;;;;12.60;3.40;;;16.00;73.70;;;;;;10446780;28;20040;-55
2023/03/24 09:13:23;;;;;;;10.63;3.65;;;16.00;73.60;;;;;;10445172;28;20408;-55
2023/03/24 09:18:24;;;;;;;11.43;3.65;;;16.00;73.50;;;;;;10452838;28;20044;-55
2023/03/24 09:23:27;;;;;;;9.38;3.75;;;16.00;73.40;;;;;;10445702;28;20130;-55
2023/03/24 09:28:28;;;;;;;8.75;3.10;;;16.00;73.30;;;;;;10444949;28;20087;-54
2023/03/24 09:33:30;;;;;;;10.50;3.13;;;16.00;73.30;;;;;;10443028;28;20633;-54
2023/03/24 09:38:32;;;;;;;10.55;2.92;;;16.00;73.20;;;;;;10443911;28;20025;-55
2023/03/24 09:43:42;;;;;;;8.95;2.60;;;16.00;73.30;;;;;;10415421;28;20017;-55
2023/03/24 09:48:48;;;;;;;9.38;3.17;;;16.00;73.70;;;;;;10445790;28;20057;-55
2023/03/24 09:54:17;;;;;;;9.82;2.50;;;16.00;73.10;;;;;;10445835;28;20023;-54
2023/03/24 09:59:36;;;;;;;11.05;2.45;;;16.00;72.90;;;;;;10444901;28;20025;-56
2023/03/24 10:04:36;;;;;;;7.38;3.25;;;16.00;73.00;;;;;;10431196;28;20033;-55
2023/03/24 10:09:37;;;;;;;6.25;2.30;;;16.10;72.80;;;;;;10448734;28;20484;-54
2023/03/24 10:15:16;;;;;;;9.20;2.25;;;16.10;72.80;;;;;;10434862;28;20048;-55
2023/03/24 10:20:37;;;;;;;6.80;2.40;;;16.10;72.70;;;;;;10418777;28;20033;-55
2023/03/24 10:25:54;;;;;;;7.97;2.45;;;16.10;72.70;;;;;;10451197;28;20017;-55
2023/03/24 10:30:59;;;;;;;9.32;2.95;;;16.10;72.60;;;;;;10450721;28;20025;-55
2023/03/24 10:36:04;;;;;;;6.18;1.98;;;16.20;72.50;;;;;;10434763;28;20722;-55
2023/03/24 10:41:05;;;;;;;7.38;3.17;;;16.20;72.40;;;;;;10450958;28;20480;-55
2023/03/24 10:46:08;;;;;;;7.63;2.47;;;16.10;72.40;;;;;;10450548;28;20029;-54
2023/03/24 10:51:25;;;;;;;6.20;2.53;;;16.10;72.30;;;;;;10451581;28;20547;-55
2023/03/24 10:56:41;;;;;;;7.65;2.38;;;16.10;72.40;;;;;;10445274;28;20032;-56
2023/03/24 11:01:42;;;;;;;5.38;1.90;;;16.10;72.30;;;;;;10450007;28;20111;-54
2023/03/24 11:07:08;;;;;;;5.05;2.42;;;16.00;72.30;;;;;;10449180;28;20017;-55
2023/03/24 11:12:32;;;;;;;8.40;2.70;;;16.00;72.20;;;;;;10443564;28;20041;-54
2023/03/24 11:17:32;;;;;;;6.82;2.17;;;16.00;72.40;;;;;;10448842;28;20045;-55
2023/03/24 11:22:35;;;;;;;8.60;2.13;;;16.00;72.30;;;;;;10464937;28;20116;-55
2023/03/24 11:27:41;;;;;;;6.53;2.03;;;15.90;72.40;;;;;;10446823;28;20542;-55
2023/03/24 11:32:46;;;;;;;7.03;2.17;;;16.00;72.60;;;;;;10444601;28;20021;-53
2023/03/24 11:37:47;;;;;;;6.20;2.75;;;16.00;72.90;;;;;;10437303;28;20451;-55
2023/03/24 11:42:58;;;;;;;8.30;2.13;;;16.10;72.90;;;;;;10447319;28;20101;-55
2023/03/24 11:48:04;;;;;;;8.55;3.17;;;16.40;74.40;;;;;;10446049;28;20033;-54
2023/03/24 11:53:20;;;;;;;12.18;2.15;;;16.50;74.70;;;;;;10443148;28;20038;-54
2023/03/24 11:58:54;;;;;;;11.05;3.13;;;16.40;74.90;;;;;;10433656;28;20029;-55
2023/03/24 12:04:05;;;;;;;6.95;2.35;;;16.40;75.10;;;;;;10437149;28;20120;-55
2023/03/24 12:09:26;;;;;;;14.93;3.13;;;16.30;74.80;;;;;;10448575;28;20025;-55
2023/03/24 12:14:57;;;;;;;24.52;3.83;;;16.20;74.80;;;;;;10442319;28;20095;-54
2023/03/24 12:20:29;;;;;;;22.45;3.90;;;16.20;74.70;;;;;;10444950;28;20021;-54
2023/03/24 12:25:47;;;;;;;12.43;3.78;;;16.20;74.70;;;;;;10442655;28;20041;-54
2023/03/24 12:31:14;;;;;;;15.30;3.83;;;16.40;74.90;;;;;;10436300;28;20032;-55
2023/03/24 12:36:30;;;;;;;25.13;3.25;;;16.30;75.20;;;;;;10439598;28;20088;-54
2023/03/24 12:41:55;;;;;;;13.38;3.65;;;16.30;75.20;;;;;;10442252;28;20025;-54
2023/03/24 12:47:33;;;;;;;11.23;3.08;;;16.30;75.60;;;;;;10443290;28;20025;-55
2023/03/24 12:53:15;;;;;;;9.15;2.08;;;16.30;75.00;;;;;;10440391;28;20091;-54
2023/03/24 12:58:46;;;;;;;5.75;2.40;;;16.20;74.90;;;;;;10441383;28;20025;-55
2023/03/24 13:03:59;;;;;;;11.40;3.08;;;16.30;75.00;;;;;;10442355;28;20048;-55
2023/03/24 13:09:28;;;;;;;10.52;2.63;;;16.30;74.70;;;;;;10428527;28;20037;-54
2023/03/24 13:14:37;;;;;;;25.05;4.03;;;16.30;74.40;;;;;;10431812;28;20059;-55
2023/03/24 13:19:40;;;;;;;19.35;4.00;;;16.20;74.40;;;;;;10418405;28;20017;-54
2023/03/24 13:24:41;;;;;;;24.75;3.47;;;16.20;74.70;;;;;;10417516;28;20143;-55
2023/03/24 13:30:04;;;;;;;16.23;3.13;;;16.20;75.10;;;;;;10427452;28;20025;-54
2023/03/24 13:35:35;;;;;;;10.50;3.47;;;16.20;75.20;;;;;;10433469;28;20018;-55
2023/03/24 13:40:39;;;;;;;15.65;3.15;;;16.20;75.20;;;;;;10396066;28;20470;-56
2023/03/24 13:45:51;;;;;;;19.88;3.13;;;16.30;75.20;;;;;;10433190;28;20028;-55
2023/03/24 13:51:00;;;;;;;8.38;2.83;;;16.30;75.30;;;;;;10435986;28;20045;-54
2023/03/24 13:56:04;;;;;;;12.90;2.63;;;16.30;75.60;;;;;;10433346;28;20021;-54
2023/03/24 14:01:08;;;;;;;13.90;2.40;;;16.20;75.60;;;;;;10428143;28;20516;-55
2023/03/24 14:06:15;;;;;;;12.45;3.25;;;16.20;75.70;;;;;;10436851;28;20022;-53
2023/03/24 14:11:31;;;;;;;11.32;2.42;;;16.20;75.70;;;;;;10441514;28;20377;-54
2023/03/24 14:16:51;;;;;;;25.85;4.20;;;16.20;75.80;;;;;;10422810;28;20076;-56
2023/03/24 14:22:10;;;;;;;17.65;3.90;;;16.20;76.00;;;;;;10437353;28;20112;-57
2023/03/24 14:27:33;;;;;;;19.13;3.72;;;16.40;75.80;;;;;;10436175;28;20488;-55
2023/03/24 14:32:58;;;;;;;42.72;5.95;;;16.40;75.30;;;;;;10446024;28;20484;-55
2023/03/24 14:38:25;;;;;;;16.17;2.92;;;16.50;77.10;;;;;;10448728;28;20122;-55
2023/03/24 14:43:38;;;;;;;15.63;2.83;;;16.60;76.10;;;;;;10460157;28;20025;-53
2023/03/24 14:48:57;;;;;;;13.68;3.97;;;16.70;75.30;;;;;;10450222;28;20090;-54
2023/03/24 14:53:58;;;;;;;9.50;3.70;;;16.70;74.10;;;;;;10455737;28;20022;-56
2023/03/24 14:59:07;;;;;;;13.35;2.83;;;16.90;74.80;;;;;;10429400;28;20021;-55
2023/03/24 15:04:10;;;;;;;10.60;2.67;;;17.10;73.70;;;;;;10426991;28;20013;-55
2023/03/24 15:09:10;;;;;;;13.65;3.28;;;17.10;74.00;;;;;;10441722;28;20028;-54
2023/03/24 15:14:22;;;;;;;20.83;3.13;;;17.10;74.60;;;;;;10448536;28;20049;-56
2023/03/24 15:19:29;;;;;;;23.95;4.75;;;17.20;75.80;;;;;;10447103;28;20029;-55
2023/03/24 15:24:35;;;;;;;16.77;3.38;;;17.20;74.50;;;;;;10448973;28;20060;-56
2023/03/24 15:29:39;;;;;;;26.63;4.13;;;17.20;74.60;;;;;;10442947;28;20120;-55
2023/03/24 15:34:41;;;;;;;39.63;6.30;;;17.10;74.70;;;;;;10447754;28;20032;-55
2023/03/24 15:39:47;;;;;;;28.10;5.05;;;17.00;75.20;;;;;;10449496;28;20452;-54
2023/03/24 15:44:48;;;;;;;35.83;5.70;;;16.90;75.30;;;;;;10444960;28;20027;-54
2023/03/24 15:49:55;;;;;;;15.75;4.03;;;16.90;75.20;;;;;;10447896;28;20083;-54
2023/03/24 15:55:26;;;;;;;22.70;3.85;;;16.80;76.20;;;;;;10444783;28;20051;-55
2023/03/24 16:00:35;;;;;;;19.83;3.40;;;17.00;76.10;;;;;;10425850;28;20461;-55
2023/03/24 16:05:50;;;;;;;26.23;3.87;;;17.10;75.70;;;;;;10447706;28;20086;-55
2023/03/24 16:11:00;;;;;;;28.83;5.03;;;17.00;75.80;;;;;;10441847;28;20040;-54
2023/03/24 16:16:13;;;;;;;38.42;6.78;;;17.10;75.90;;;;;;10440604;28;20025;-54
2023/03/24 16:21:20;;;;;;;33.25;5.53;;;17.10;76.20;;;;;;10437950;28;20477;-54
2023/03/24 16:26:25;;;;;;;42.63;6.32;;;17.00;76.90;;;;;;10424715;28;20021;-52
2023/03/24 16:31:34;;;;;;;26.75;5.45;;;17.00;76.60;;;;;;10421877;28;20025;-55
2023/03/24 16:36:34;;;;;;;25.50;5.18;;;17.00;75.90;;;;;;10436034;28;20473;-56
2023/03/24 16:41:36;;;;;;;21.65;4.28;;;16.80;76.00;;;;;;10439942;28;20092;-54
2023/03/24 16:46:39;;;;;;;22.50;3.63;;;16.80;75.50;;;;;;10426712;28;20751;-55
2023/03/24 16:51:40;;;;;;;20.55;5.05;;;16.90;75.30;;;;;;10420338;28;20030;-54
2023/03/24 16:56:41;;;;;;;22.67;5.45;;;16.80;74.60;;;;;;10409514;28;20021;-55
2023/03/24 17:01:44;;;;;;;18.42;5.18;;;17.00;78.70;;;;;;10429037;28;20430;-56
2023/03/24 17:06:49;;;;;;;17.83;4.05;;;17.30;78.60;;;;;;10433112;28;20017;-54
2023/03/24 17:11:54;;;;;;;27.80;4.47;;;17.60;77.90;;;;;;10444398;28;20575;-55
2023/03/24 17:16:55;;;;;;;19.33;5.07;;;17.60;76.80;;;;;;10428681;28;20025;-56
2023/03/24 17:22:01;;;;;;;28.90;4.95;;;17.50;75.90;;;;;;10444716;28;20445;-55
2023/03/24 17:27:03;;;;;;;22.23;5.15;;;17.40;76.30;;;;;;10426716;28;20071;-55
2023/03/24 17:32:04;;;;;;;17.48;3.53;;;17.40;76.70;;;;;;10443923;28;20033;-54
2023/03/24 17:37:05;;;;;;;16.48;4.50;;;17.30;76.70;;;;;;10446261;28;20013;-55
2023/03/24 17:42:05;;;;;;;15.95;3.92;;;17.20;76.60;;;;;;10424084;28;20025;-56
2023/03/24 17:47:06;;;;;;;12.30;3.28;;;17.10;76.50;;;;;;10444866;28;20025;-56
2023/03/24 17:52:07;;;;;;;17.75;5.68;;;16.90;76.90;;;;;;10440185;28;20358;-56
2023/03/24 17:57:08;;;;;;;17.75;3.30;;;16.90;77.30;;;;;;10458435;28;20449;-56
2023/03/24 18:02:11;;;;;;;9.25;3.10;;;16.80;77.50;;;;;;10445013;28;20017;-56
2023/03/24 18:07:13;;;;;;;20.95;4.40;;;16.90;77.60;;;;;;10443725;28;20326;-56
2023/03/24 18:12:13;;;;;;;16.90;3.15;;;16.80;77.70;;;;;;10434043;28;20044;-56
2023/03/24 18:17:14;;;;;;;6.63;2.67;;;16.70;77.50;;;;;;10441938;28;20025;-58
2023/03/24 18:22:15;;;;;;;11.10;3.50;;;16.80;77.50;;;;;;10425440;28;20025;-54
2023/03/24 18:27:16;;;;;;;7.28;2.95;;;16.80;77.20;;;;;;10440868;28;20021;-56
2023/03/24 18:32:16;;;;;;;9.50;3.10;;;16.70;77.30;;;;;;10446321;28;20075;-56
2023/03/24 18:37:17;;;;;;;8.13;2.30;;;16.70;77.20;;;;;;10447561;28;20062;-55
2023/03/24 18:42:19;;;;;;;11.95;3.42;;;16.70;76.60;;;;;;10444684;28;20025;-54
2023/03/24 18:47:19;;;;;;;9.80;2.72;;;16.80;76.20;;;;;;10423004;28;20029;-54
2023/03/24 18:52:20;;;;;;;14.50;3.53;;;16.80;76.00;;;;;;10442346;28;20107;-55
2023/03/24 18:57:21;;;;;;;13.30;2.22;;;16.80;76.00;;;;;;10444161;28;20089;-54
2023/03/24 19:02:22;;;;;;;10.20;3.00;;;16.90;75.70;;;;;;10447445;28;20384;-55
2023/03/24 19:07:25;;;;;;;9.13;1.77;;;17.00;75.40;;;;;;10434168;28;20029;-55
2023/03/24 19:12:25;;;;;;;7.85;2.03;;;17.00;75.30;;;;;;10445643;28;20132;-56
2023/03/24 19:17:27;;;;;;;7.22;1.83;;;17.00;75.10;;;;;;10448021;28;20023;-54
2023/03/24 19:22:27;;;;;;;4.30;1.80;;;17.00;74.80;;;;;;10448570;28;20633;-55
2023/03/24 19:27:28;;;;;;;5.55;1.42;;;17.10;74.60;;;;;;10444280;28;20052;-55
2023/03/24 19:32:30;;;;;;;8.57;2.03;;;17.10;74.40;;;;;;10446921;28;20896;-55
2023/03/24 19:37:31;;;;;;;2.78;1.15;;;17.10;74.10;;;;;;10449924;28;20242;-54
2023/03/24 19:42:32;;;;;;;6.97;1.55;;;17.20;73.70;;;;;;10445530;28;20150;-55
2023/03/24 19:47:33;;;;;;;6.35;1.65;;;17.20;73.70;;;;;;10459164;28;20032;-54
2023/03/24 19:52:34;;;;;;;7.15;1.27;;;17.20;73.30;;;;;;10443593;28;20026;-55
2023/03/24 19:57:35;;;;;;;6.00;1.30;;;17.30;72.70;;;;;;10444606;28;20388;-56
2023/03/24 20:02:37;;;;;;;8.55;1.80;;;17.30;72.50;;;;;;10446932;28;20055;-54
2023/03/24 20:07:37;;;;;;;6.80;1.20;;;17.30;72.60;;;;;;10422937;28;20037;-55
2023/03/24 20:12:38;;;;;;;2.38;0.95;;;17.30;73.50;;;;;;10446345;28;20034;-54
2023/03/24 20:17:39;;;;;;;3.55;1.38;;;17.30;72.90;;;;;;10447004;28;20025;-57
2023/03/24 20:22:44;;;;;;;7.00;2.17;;;17.20;73.00;;;;;;10448126;28;20052;-53
2023/03/24 20:27:46;;;;;;;5.43;1.20;;;17.20;73.10;;;;;;10448376;28;20468;-54
2023/03/24 20:32:47;;;;;;;3.72;1.25;;;17.20;73.00;;;;;;10430144;28;20036;-53
2023/03/24 20:37:47;;;;;;;6.13;1.40;;;17.20;73.10;;;;;;10437804;28;20457;-53
2023/03/24 20:42:49;;;;;;;4.88;1.20;;;17.10;73.30;;;;;;10439225;28;20452;-53
2023/03/24 20:47:50;;;;;;;3.88;1.02;;;17.00;73.40;;;;;;10447717;28;20052;-54
2023/03/24 20:52:50;;;;;;;4.53;1.40;;;17.00;73.60;;;;;;10442504;28;20718;-54
2023/03/24 20:57:52;;;;;;;2.25;0.90;;;16.90;73.90;;;;;;10447140;28;20059;-55
2023/03/24 21:02:53;;;;;;;4.72;2.25;;;16.80;74.10;;;;;;10446086;28;20408;-55
2023/03/24 21:07:53;;;;;;;2.38;1.05;;;16.70;74.30;;;;;;10446839;28;20104;-54
2023/03/24 21:12:54;;;;;;;3.88;1.35;;;16.70;74.30;;;;;;10445239;28;20430;-54
2023/03/24 21:17:55;;;;;;;2.88;1.15;;;16.60;74.50;;;;;;10446568;28;20014;-52
2023/03/24 21:22:56;;;;;;;2.45;1.42;;;16.60;74.50;;;;;;10446775;28;20045;-54
2023/03/24 21:27:57;;;;;;;3.25;0.80;;;16.60;74.60;;;;;;10444236;28;20104;-54
2023/03/24 21:32:58;;;;;;;2.17;0.90;;;16.60;74.60;;;;;;10449950;28;20021;-54
2023/03/24 21:38:00;;;;;;;2.10;1.10;;;16.50;74.60;;;;;;10428334;28;20022;-54
2023/03/24 21:43:03;;;;;;;2.33;0.82;;;16.50;74.70;;;;;;10446371;28;20658;-55
2023/03/24 21:48:05;;;;;;;3.30;1.05;;;16.50;74.70;;;;;;10445056;28;20029;-54
2023/03/24 21:53:14;;;;;;;5.85;0.68;;;16.40;74.70;;;;;;10445838;28;20009;-56
2023/03/24 21:58:14;;;;;;;3.25;0.85;;;16.40;74.70;;;;;;10460460;28;20113;-53
2023/03/24 22:03:16;;;;;;;5.50;1.40;;;16.40;74.70;;;;;;10445777;28;20079;-54
2023/03/24 22:08:21;;;;;;;2.97;0.77;;;16.40;74.70;;;;;;10452494;28;20035;-54
2023/03/24 22:13:22;;;;;;;4.72;1.00;;;16.30;74.80;;;;;;10452447;28;20041;-54
2023/03/24 22:18:25;;;;;;;5.85;1.10;;;16.30;74.80;;;;;;10451800;28;20570;-54
2023/03/24 22:23:31;;;;;;;1.50;0.93;;;16.30;74.90;;;;;;10451939;28;20384;-51
2023/03/24 22:28:34;;;;;;;2.03;1.10;;;16.30;74.90;;;;;;10451536;28;20120;-53
2023/03/24 22:33:35;;;;;;;3.85;0.90;;;16.20;74.80;;;;;;10450835;28;20074;-54
2023/03/24 22:38:36;;;;;;;2.08;0.80;;;16.20;74.90;;;;;;10449201;28;20021;-54
2023/03/24 22:43:40;;;;;;;3.45;1.35;;;16.20;74.90;;;;;;10451164;28;20021;-53
2023/03/24 22:48:41;;;;;;;2.05;0.73;;;16.20;74.90;;;;;;10450888;28;20087;-55
2023/03/24 22:53:41;;;;;;;2.47;0.80;;;16.10;75.00;;;;;;10437287;28;20550;-55
2023/03/24 22:58:42;;;;;;;3.35;1.27;;;16.10;75.00;;;;;;10450340;28;20048;-54
2023/03/24 23:03:43;;;;;;;1.83;0.80;;;16.10;75.00;;;;;;10450438;28;20017;-54
2023/03/24 23:08:44;;;;;;;1.95;0.85;;;16.10;75.00;;;;;;10451471;28;20029;-53
2023/03/24 23:13:49;;;;;;;1.83;0.73;;;16.10;74.90;;;;;;10449508;28;20048;-54
2023/03/24 23:18:50;;;;;;;3.38;0.85;;;16.10;74.90;;;;;;10449026;28;20021;-54
2023/03/24 23:23:51;;;;;;;1.60;0.60;;;16.10;74.80;;;;;;10450639;28;20013;-54
2023/03/24 23:28:51;;;;;;;1.88;0.80;;;16.10;74.80;;;;;;10449205;28;20025;-55
2023/03/24 23:33:56;;;;;;;2.38;0.75;;;16.00;74.80;;;;;;10432445;28;20358;-53
2023/03/24 23:38:56;;;;;;;1.75;0.75;;;16.00;74.80;;;;;;10448913;28;20056;-55
2023/03/24 23:43:57;;;;;;;1.30;0.80;;;16.00;74.90;;;;;;10448830;28;20056;-59
2023/03/24 23:48:59;;;;;;;1.42;0.63;;;16.00;74.80;;;;;;10431769;28;20465;-53
2023/03/24 23:53:59;;;;;;;2.05;0.70;;;16.00;74.80;;;;;;10435956;28;20025;-54
2023/03/24 23:59:00;;;;;;;2.05;0.70;;;16.00;74.80;;;;;;10449286;28;20418;-54
